Pagrindinis puslapis
METAR-TAF:

METAR-TAF

Oro uostai :

Rostokas, Vokietija

platuma: 53-55N, ilguma: 012-17E, Aukštis: 40 m

Dabartinis oras

Ataskaita buvo paskelbta 50 minutes, ne 19:20 UTC
Vėjas 6 kt iš Vakarų/Pietvakarių
Temperatūra 14°C
Drėgmė 82%
Slėgis 1024 hPa
Matomumas 10 km arba daugiau
Su prošvaistėmis ne aukštis 2900 ft

METAR: ETNL 201920Z 25006KT 9999 BKN029 14/11 Q1024 BLU

Laikas: 22:10 (20:10 UTC)

Prognozė

Ataskaita buvo paskelbta 4 valandos ir 0 minutes, ne 16:10 UTC
Prognozė galioja nuo 20 metu 17 UTC su 21 metu 05 UTC
Vėjas 10 kt iš Vakarų
Matomumas: 8000 m
Su prošvaistėmis ne aukštis 3000 ft
Laikinai
nuo 20 metu 17 UTC su 20 metu 23 UTC
Vėjas 12 kt iš Vakarų/Pietvakarių
Matomumas: 4000 m
Su prošvaistėmis ne aukštis 1000 ft
lietus, dulksna
Tikimybė 30%
nuo 21 metu 02 UTC su 21 metu 05 UTC
Vėjas 5 kt iš Vakarų/Pietvakarių
Matomumas: 3000 m
Išsisklaidę debesys ne aukštis 500 ft
Sekli rūkas

TAF: ETNL 201610Z 2017/2105 27010KT 8000 NSW BKN030 TEMPO 2017/2023 24012KT 4000 -RADZ BKN010 PROB30 2102/2105 25005KT 3000 MIFG SCT005 BY ETGL

Orai ataskaitas ir orų prognozės (METAR, TAF).

turimą stotys yra geltonos ir raudonos taškus žemėlapyje.

Perkelti pele per norėdami pamatyti stoties vardą.

Tada spustelėkite, norėdami matyti oro stebėjimo ir prognozės.

Norėdami pakeisti žemėlapį: spustelėkite ant žalios mygtukų su juodo kryžiaus žemyn,; žalią mygtuką su brūkšneliu, jei norite nutolinti; arba žalių rodyklių gretimoms žemėlapius.


METAR-TAF: